South Paterson, New Jersey
Current Conditions -  °F | °C
As of 12:51 PM on Friday 28 Nov 2014 (Local Time) from KTEB Reporting Station
Few Clouds Few Clouds  
Wind Chill: 27°   Ceiling: Unl
Heat Index: 36°   Visibility: 10mi
Dew Point: 17°   Wind: 15mph
Humidity: 46%   Direction: 310°NW
Pressure: 30.15"   Gusts: 25mph
Location:  40.8979°N, 74.1545°W
Report Text: KTEB 281751Z 31013G22KT 10SM FEW040 02/M08 A3015 RMK AO2 SLP210 T00221083 10028 21017 56010 $
Loading
Personal Weather Stations






























Interactive Weather Map New forecast layout! Learn more

10-Day Weather Forecast

Advertisements
Track Severe Weather on mobile